sensor_id;sensor_type;location;lat;lon;timestamp;P1;durP1;ratioP1;P2;durP2;ratioP2
65691;SDS011;52411;52.716;6.696;2023-04-07T00:01:54;40.33;;;23.63;;
65691;SDS011;52411;52.716;6.696;2023-04-07T00:04:20;38.33;;;22.48;;
65691;SDS011;52411;52.716;6.696;2023-04-07T00:06:45;36.60;;;21.02;;
65691;SDS011;52411;52.716;6.696;2023-04-07T00:09:11;39.55;;;24.17;;
65691;SDS011;52411;52.716;6.696;2023-04-07T00:11:37;43.97;;;24.13;;
65691;SDS011;52411;52.716;6.696;2023-04-07T00:14:02;45.17;;;24.67;;
65691;SDS011;52411;52.716;6.696;2023-04-07T00:16:28;37.60;;;22.83;;
65691;SDS011;52411;52.716;6.696;2023-04-07T00:18:54;38.20;;;23.65;;
65691;SDS011;52411;52.716;6.696;2023-04-07T00:21:19;41.67;;;24.42;;
65691;SDS011;52411;52.716;6.696;2023-04-07T00:23:45;45.97;;;25.77;;
65691;SDS011;52411;52.716;6.696;2023-04-07T00:26:11;46.78;;;25.10;;
65691;SDS011;52411;52.716;6.696;2023-04-07T00:28:37;45.03;;;24.92;;
65691;SDS011;52411;52.716;6.696;2023-04-07T00:31:02;47.83;;;24.92;;
65691;SDS011;52411;52.716;6.696;2023-04-07T00:33:28;44.08;;;24.75;;
65691;SDS011;52411;52.716;6.696;2023-04-07T00:35:53;44.80;;;24.52;;
65691;SDS011;52411;52.716;6.696;2023-04-07T00:38:21;46.45;;;25.00;;
65691;SDS011;52411;52.716;6.696;2023-04-07T00:40:47;45.08;;;24.30;;
65691;SDS011;52411;52.716;6.696;2023-04-07T00:43:12;42.10;;;24.65;;
65691;SDS011;52411;52.716;6.696;2023-04-07T00:45:38;44.53;;;24.40;;
65691;SDS011;52411;52.716;6.696;2023-04-07T00:48:03;44.30;;;24.23;;
65691;SDS011;52411;52.716;6.696;2023-04-07T00:50:29;38.92;;;23.67;;
65691;SDS011;52411;52.716;6.696;2023-04-07T00:52:55;41.03;;;23.85;;
65691;SDS011;52411;52.716;6.696;2023-04-07T00:55:21;44.90;;;25.17;;
65691;SDS011;52411;52.716;6.696;2023-04-07T00:57:47;41.28;;;24.25;;
65691;SDS011;52411;52.716;6.696;2023-04-07T01:00:12;46.33;;;25.35;;
65691;SDS011;52411;52.716;6.696;2023-04-07T01:05:15;45.53;;;24.67;;
65691;SDS011;52411;52.716;6.696;2023-04-07T01:11:31;46.83;;;24.38;;
65691;SDS011;52411;52.716;6.696;2023-04-07T01:13:56;40.90;;;23.55;;
65691;SDS011;52411;52.716;6.696;2023-04-07T01:16:25;41.40;;;23.90;;
65691;SDS011;52411;52.716;6.696;2023-04-07T01:18:54;45.88;;;24.15;;
65691;SDS011;52411;52.716;6.696;2023-04-07T01:21:26;41.88;;;23.25;;
65691;SDS011;52411;52.716;6.696;2023-04-07T01:24:17;45.53;;;25.33;;
65691;SDS011;52411;52.716;6.696;2023-04-07T01:26:50;44.05;;;23.95;;
65691;SDS011;52411;52.716;6.696;2023-04-07T01:29:33;46.15;;;25.05;;
65691;SDS011;52411;52.716;6.696;2023-04-07T01:32:01;45.70;;;23.80;;
65691;SDS011;52411;52.716;6.696;2023-04-07T01:34:30;47.95;;;24.85;;
65691;SDS011;52411;52.716;6.696;2023-04-07T01:36:57;46.90;;;24.77;;
65691;SDS011;52411;52.716;6.696;2023-04-07T01:39:26;46.67;;;24.40;;
65691;SDS011;52411;52.716;6.696;2023-04-07T01:41:52;44.80;;;23.50;;
65691;SDS011;52411;52.716;6.696;2023-04-07T01:44:19;48.03;;;24.48;;
65691;SDS011;52411;52.716;6.696;2023-04-07T01:46:45;51.83;;;24.95;;
65691;SDS011;52411;52.716;6.696;2023-04-07T01:49:12;47.10;;;24.17;;
65691;SDS011;52411;52.716;6.696;2023-04-07T01:51:39;49.70;;;25.42;;
65691;SDS011;52411;52.716;6.696;2023-04-07T01:54:05;43.75;;;23.70;;
65691;SDS011;52411;52.716;6.696;2023-04-07T01:56:31;43.15;;;23.80;;
65691;SDS011;52411;52.716;6.696;2023-04-07T01:58:57;46.60;;;24.05;;
65691;SDS011;52411;52.716;6.696;2023-04-07T02:01:23;41.42;;;23.80;;
65691;SDS011;52411;52.716;6.696;2023-04-07T02:03:55;42.17;;;23.48;;
65691;SDS011;52411;52.716;6.696;2023-04-07T02:06:58;48.22;;;24.17;;
65691;SDS011;52411;52.716;6.696;2023-04-07T02:09:29;43.45;;;23.67;;
65691;SDS011;52411;52.716;6.696;2023-04-07T02:11:57;41.97;;;22.88;;
65691;SDS011;52411;52.716;6.696;2023-04-07T02:14:26;41.00;;;22.92;;
65691;SDS011;52411;52.716;6.696;2023-04-07T02:16:52;42.17;;;23.60;;
65691;SDS011;52411;52.716;6.696;2023-04-07T02:19:18;45.35;;;22.88;;
65691;SDS011;52411;52.716;6.696;2023-04-07T02:21:44;42.17;;;23.40;;
65691;SDS011;52411;52.716;6.696;2023-04-07T02:24:11;41.03;;;22.85;;
65691;SDS011;52411;52.716;6.696;2023-04-07T02:26:36;43.67;;;23.13;;
65691;SDS011;52411;52.716;6.696;2023-04-07T02:29:02;40.05;;;22.92;;
65691;SDS011;52411;52.716;6.696;2023-04-07T02:31:29;37.88;;;21.63;;
65691;SDS011;52411;52.716;6.696;2023-04-07T02:33:54;43.75;;;23.65;;
65691;SDS011;52411;52.716;6.696;2023-04-07T02:36:20;40.03;;;23.23;;
65691;SDS011;52411;52.716;6.696;2023-04-07T02:38:46;45.35;;;23.85;;
65691;SDS011;52411;52.716;6.696;2023-04-07T02:41:11;39.25;;;22.67;;
65691;SDS011;52411;52.716;6.696;2023-04-07T02:43:37;38.28;;;22.25;;
65691;SDS011;52411;52.716;6.696;2023-04-07T02:46:02;43.90;;;23.60;;
65691;SDS011;52411;52.716;6.696;2023-04-07T02:48:28;42.75;;;23.50;;
65691;SDS011;52411;52.716;6.696;2023-04-07T02:50:54;40.28;;;23.05;;
65691;SDS011;52411;52.716;6.696;2023-04-07T02:53:20;39.00;;;22.67;;
65691;SDS011;52411;52.716;6.696;2023-04-07T02:55:45;43.40;;;23.63;;
65691;SDS011;52411;52.716;6.696;2023-04-07T02:58:11;42.67;;;24.15;;
65691;SDS011;52411;52.716;6.696;2023-04-07T03:00:36;41.30;;;23.00;;
65691;SDS011;52411;52.716;6.696;2023-04-07T03:03:02;46.60;;;24.00;;
65691;SDS011;52411;52.716;6.696;2023-04-07T03:05:27;43.30;;;24.67;;
65691;SDS011;52411;52.716;6.696;2023-04-07T03:07:53;44.17;;;24.38;;
65691;SDS011;52411;52.716;6.696;2023-04-07T03:10:18;40.78;;;24.02;;
65691;SDS011;52411;52.716;6.696;2023-04-07T03:12:44;44.53;;;25.15;;
65691;SDS011;52411;52.716;6.696;2023-04-07T03:15:09;41.47;;;24.35;;
65691;SDS011;52411;52.716;6.696;2023-04-07T03:17:35;49.85;;;25.08;;
65691;SDS011;52411;52.716;6.696;2023-04-07T03:20:01;47.60;;;25.20;;
65691;SDS011;52411;52.716;6.696;2023-04-07T03:22:26;46.13;;;24.45;;
65691;SDS011;52411;52.716;6.696;2023-04-07T03:24:52;46.97;;;25.30;;
65691;SDS011;52411;52.716;6.696;2023-04-07T03:27:17;44.15;;;24.52;;
65691;SDS011;52411;52.716;6.696;2023-04-07T03:29:44;42.42;;;24.20;;
65691;SDS011;52411;52.716;6.696;2023-04-07T03:32:10;42.30;;;23.38;;
65691;SDS011;52411;52.716;6.696;2023-04-07T03:34:36;40.22;;;23.70;;
65691;SDS011;52411;52.716;6.696;2023-04-07T03:37:02;39.53;;;23.05;;
65691;SDS011;52411;52.716;6.696;2023-04-07T03:39:27;39.10;;;23.10;;
65691;SDS011;52411;52.716;6.696;2023-04-07T03:41:53;40.53;;;23.40;;
65691;SDS011;52411;52.716;6.696;2023-04-07T03:44:18;39.80;;;22.95;;
65691;SDS011;52411;52.716;6.696;2023-04-07T03:46:44;36.90;;;21.58;;
65691;SDS011;52411;52.716;6.696;2023-04-07T03:49:11;40.90;;;22.67;;
65691;SDS011;52411;52.716;6.696;2023-04-07T03:51:36;35.72;;;21.55;;
65691;SDS011;52411;52.716;6.696;2023-04-07T03:54:02;37.65;;;22.80;;
65691;SDS011;52411;52.716;6.696;2023-04-07T03:56:27;41.72;;;22.60;;
65691;SDS011;52411;52.716;6.696;2023-04-07T03:58:53;41.63;;;23.52;;
65691;SDS011;52411;52.716;6.696;2023-04-07T04:01:19;40.00;;;22.65;;
65691;SDS011;52411;52.716;6.696;2023-04-07T04:03:45;44.17;;;24.33;;
65691;SDS011;52411;52.716;6.696;2023-04-07T04:06:11;42.10;;;22.98;;
65691;SDS011;52411;52.716;6.696;2023-04-07T04:08:36;44.67;;;24.58;;
65691;SDS011;52411;52.716;6.696;2023-04-07T04:11:02;39.70;;;23.35;;
65691;SDS011;52411;52.716;6.696;2023-04-07T04:13:27;41.05;;;23.58;;
65691;SDS011;52411;52.716;6.696;2023-04-07T04:15:53;41.63;;;24.40;;
65691;SDS011;52411;52.716;6.696;2023-04-07T04:18:18;42.67;;;23.23;;
65691;SDS011;52411;52.716;6.696;2023-04-07T04:20:44;40.92;;;23.98;;
65691;SDS011;52411;52.716;6.696;2023-04-07T04:23:11;46.00;;;24.15;;
65691;SDS011;52411;52.716;6.696;2023-04-07T04:25:37;44.95;;;25.05;;
65691;SDS011;52411;52.716;6.696;2023-04-07T04:28:04;42.75;;;24.65;;
65691;SDS011;52411;52.716;6.696;2023-04-07T04:30:30;43.40;;;23.90;;
65691;SDS011;52411;52.716;6.696;2023-04-07T04:32:56;42.05;;;24.10;;
65691;SDS011;52411;52.716;6.696;2023-04-07T04:35:21;43.30;;;24.17;;
65691;SDS011;52411;52.716;6.696;2023-04-07T04:37:47;45.10;;;24.60;;
65691;SDS011;52411;52.716;6.696;2023-04-07T04:40:13;43.53;;;23.85;;
65691;SDS011;52411;52.716;6.696;2023-04-07T04:42:38;43.83;;;24.42;;
65691;SDS011;52411;52.716;6.696;2023-04-07T04:45:04;40.92;;;23.88;;
65691;SDS011;52411;52.716;6.696;2023-04-07T04:47:30;40.58;;;22.83;;
65691;SDS011;52411;52.716;6.696;2023-04-07T04:49:56;42.35;;;23.13;;
65691;SDS011;52411;52.716;6.696;2023-04-07T04:52:21;42.55;;;23.20;;
65691;SDS011;52411;52.716;6.696;2023-04-07T04:54:47;42.17;;;23.20;;
65691;SDS011;52411;52.716;6.696;2023-04-07T04:57:12;39.15;;;23.25;;
65691;SDS011;52411;52.716;6.696;2023-04-07T04:59:38;41.80;;;22.70;;
65691;SDS011;52411;52.716;6.696;2023-04-07T05:02:04;43.30;;;24.50;;
65691;SDS011;52411;52.716;6.696;2023-04-07T05:04:29;45.40;;;24.17;;
65691;SDS011;52411;52.716;6.696;2023-04-07T05:06:55;44.30;;;24.10;;
65691;SDS011;52411;52.716;6.696;2023-04-07T05:09:21;39.47;;;23.48;;
65691;SDS011;52411;52.716;6.696;2023-04-07T05:11:46;41.47;;;23.33;;
65691;SDS011;52411;52.716;6.696;2023-04-07T05:14:12;43.42;;;23.60;;
65691;SDS011;52411;52.716;6.696;2023-04-07T05:16:37;38.50;;;22.48;;
65691;SDS011;52411;52.716;6.696;2023-04-07T05:19:03;41.28;;;23.08;;
65691;SDS011;52411;52.716;6.696;2023-04-07T05:21:28;37.97;;;22.77;;
65691;SDS011;52411;52.716;6.696;2023-04-07T05:23:54;44.45;;;23.70;;
65691;SDS011;52411;52.716;6.696;2023-04-07T05:26:20;41.42;;;22.58;;
65691;SDS011;52411;52.716;6.696;2023-04-07T05:28:46;41.10;;;22.52;;
65691;SDS011;52411;52.716;6.696;2023-04-07T05:31:11;40.42;;;23.02;;
65691;SDS011;52411;52.716;6.696;2023-04-07T05:33:37;40.08;;;22.55;;
65691;SDS011;52411;52.716;6.696;2023-04-07T05:36:02;37.90;;;22.27;;
65691;SDS011;52411;52.716;6.696;2023-04-07T05:38:28;37.38;;;21.85;;
65691;SDS011;52411;52.716;6.696;2023-04-07T05:40:54;40.53;;;22.83;;
65691;SDS011;52411;52.716;6.696;2023-04-07T05:43:19;41.70;;;22.00;;
65691;SDS011;52411;52.716;6.696;2023-04-07T05:45:45;41.75;;;23.00;;
65691;SDS011;52411;52.716;6.696;2023-04-07T05:48:11;40.55;;;21.98;;
65691;SDS011;52411;52.716;6.696;2023-04-07T05:50:36;40.05;;;23.55;;
65691;SDS011;52411;52.716;6.696;2023-04-07T05:53:02;41.05;;;23.15;;
65691;SDS011;52411;52.716;6.696;2023-04-07T05:55:27;39.22;;;22.52;;
65691;SDS011;52411;52.716;6.696;2023-04-07T05:57:53;41.05;;;22.95;;
65691;SDS011;52411;52.716;6.696;2023-04-07T06:00:19;40.25;;;23.10;;
65691;SDS011;52411;52.716;6.696;2023-04-07T06:02:44;41.28;;;22.23;;
65691;SDS011;52411;52.716;6.696;2023-04-07T06:05:10;43.05;;;23.45;;
65691;SDS011;52411;52.716;6.696;2023-04-07T06:07:36;39.63;;;23.02;;
65691;SDS011;52411;52.716;6.696;2023-04-07T06:10:04;46.15;;;23.67;;
65691;SDS011;52411;52.716;6.696;2023-04-07T06:12:31;43.13;;;23.15;;
65691;SDS011;52411;52.716;6.696;2023-04-07T06:14:56;43.40;;;23.63;;
65691;SDS011;52411;52.716;6.696;2023-04-07T06:17:22;39.80;;;23.38;;
65691;SDS011;52411;52.716;6.696;2023-04-07T06:19:48;39.90;;;23.25;;
65691;SDS011;52411;52.716;6.696;2023-04-07T06:22:13;38.13;;;22.35;;
65691;SDS011;52411;52.716;6.696;2023-04-07T06:24:39;38.97;;;22.60;;
65691;SDS011;52411;52.716;6.696;2023-04-07T06:27:05;40.30;;;22.98;;
65691;SDS011;52411;52.716;6.696;2023-04-07T06:29:31;43.90;;;23.45;;
65691;SDS011;52411;52.716;6.696;2023-04-07T06:31:57;36.95;;;22.13;;
65691;SDS011;52411;52.716;6.696;2023-04-07T06:34:23;37.70;;;21.98;;
65691;SDS011;52411;52.716;6.696;2023-04-07T06:36:49;39.30;;;22.13;;
65691;SDS011;52411;52.716;6.696;2023-04-07T06:39:14;37.42;;;22.05;;
65691;SDS011;52411;52.716;6.696;2023-04-07T06:41:40;40.85;;;23.13;;
65691;SDS011;52411;52.716;6.696;2023-04-07T06:44:08;37.30;;;21.80;;
65691;SDS011;52411;52.716;6.696;2023-04-07T06:46:35;38.15;;;22.27;;
65691;SDS011;52411;52.716;6.696;2023-04-07T06:49:00;39.58;;;22.38;;
65691;SDS011;52411;52.716;6.696;2023-04-07T06:51:26;38.75;;;22.13;;
65691;SDS011;52411;52.716;6.696;2023-04-07T06:53:51;39.90;;;22.92;;
65691;SDS011;52411;52.716;6.696;2023-04-07T06:56:17;38.40;;;23.63;;
65691;SDS011;52411;52.716;6.696;2023-04-07T06:58:43;42.35;;;22.48;;
65691;SDS011;52411;52.716;6.696;2023-04-07T07:01:08;39.67;;;23.95;;
65691;SDS011;52411;52.716;6.696;2023-04-07T07:03:34;39.47;;;23.48;;
65691;SDS011;52411;52.716;6.696;2023-04-07T07:06:00;38.58;;;22.70;;
65691;SDS011;52411;52.716;6.696;2023-04-07T07:08:26;40.83;;;23.45;;
65691;SDS011;52411;52.716;6.696;2023-04-07T07:10:53;42.17;;;24.05;;
65691;SDS011;52411;52.716;6.696;2023-04-07T07:13:20;40.47;;;23.88;;
65691;SDS011;52411;52.716;6.696;2023-04-07T07:18:16;35.33;;;21.63;;
65691;SDS011;52411;52.716;6.696;2023-04-07T07:20:42;40.00;;;23.95;;
65691;SDS011;52411;52.716;6.696;2023-04-07T07:23:08;37.95;;;24.30;;
65691;SDS011;52411;52.716;6.696;2023-04-07T07:25:33;40.38;;;23.60;;
65691;SDS011;52411;52.716;6.696;2023-04-07T07:27:59;38.22;;;23.67;;
65691;SDS011;52411;52.716;6.696;2023-04-07T07:30:25;37.55;;;23.20;;
65691;SDS011;52411;52.716;6.696;2023-04-07T07:32:50;41.10;;;25.00;;
65691;SDS011;52411;52.716;6.696;2023-04-07T07:35:20;37.15;;;23.15;;
65691;SDS011;52411;52.716;6.696;2023-04-07T07:37:46;37.92;;;24.08;;
65691;SDS011;52411;52.716;6.696;2023-04-07T07:40:12;35.80;;;22.90;;
65691;SDS011;52411;52.716;6.696;2023-04-07T07:42:38;36.95;;;24.08;;
65691;SDS011;52411;52.716;6.696;2023-04-07T07:45:04;39.28;;;24.05;;
65691;SDS011;52411;52.716;6.696;2023-04-07T07:47:30;38.42;;;23.73;;
65691;SDS011;52411;52.716;6.696;2023-04-07T07:49:56;38.55;;;24.60;;
65691;SDS011;52411;52.716;6.696;2023-04-07T07:52:22;38.40;;;24.05;;
65691;SDS011;52411;52.716;6.696;2023-04-07T07:54:48;37.80;;;24.27;;
65691;SDS011;52411;52.716;6.696;2023-04-07T07:57:14;39.63;;;25.27;;
65691;SDS011;52411;52.716;6.696;2023-04-07T07:59:40;33.33;;;22.70;;
65691;SDS011;52411;52.716;6.696;2023-04-07T08:02:08;35.83;;;22.90;;
65691;SDS011;52411;52.716;6.696;2023-04-07T08:04:35;35.42;;;22.40;;
65691;SDS011;52411;52.716;6.696;2023-04-07T08:07:01;32.05;;;21.05;;
65691;SDS011;52411;52.716;6.696;2023-04-07T08:09:27;34.60;;;23.15;;
65691;SDS011;52411;52.716;6.696;2023-04-07T08:11:52;33.35;;;22.52;;
65691;SDS011;52411;52.716;6.696;2023-04-07T08:14:18;39.42;;;22.92;;
65691;SDS011;52411;52.716;6.696;2023-04-07T08:16:44;33.00;;;22.05;;
65691;SDS011;52411;52.716;6.696;2023-04-07T08:19:10;36.22;;;24.42;;
65691;SDS011;52411;52.716;6.696;2023-04-07T08:21:37;32.80;;;22.70;;
65691;SDS011;52411;52.716;6.696;2023-04-07T08:24:03;34.50;;;23.45;;
65691;SDS011;52411;52.716;6.696;2023-04-07T08:26:29;36.33;;;23.85;;
65691;SDS011;52411;52.716;6.696;2023-04-07T08:28:55;36.92;;;24.23;;
65691;SDS011;52411;52.716;6.696;2023-04-07T08:31:22;34.35;;;23.75;;
65691;SDS011;52411;52.716;6.696;2023-04-07T08:33:48;33.55;;;22.05;;
65691;SDS011;52411;52.716;6.696;2023-04-07T08:36:17;28.52;;;19.27;;
65691;SDS011;52411;52.716;6.696;2023-04-07T08:38:46;27.02;;;18.35;;
65691;SDS011;52411;52.716;6.696;2023-04-07T08:41:12;32.03;;;20.67;;
65691;SDS011;52411;52.716;6.696;2023-04-07T08:43:48;23.75;;;15.90;;
65691;SDS011;52411;52.716;6.696;2023-04-07T08:46:15;23.65;;;15.77;;
65691;SDS011;52411;52.716;6.696;2023-04-07T08:48:45;21.67;;;15.45;;
65691;SDS011;52411;52.716;6.696;2023-04-07T08:51:15;20.42;;;14.13;;
65691;SDS011;52411;52.716;6.696;2023-04-07T08:53:51;20.50;;;14.20;;
65691;SDS011;52411;52.716;6.696;2023-04-07T08:56:18;19.55;;;14.38;;
65691;SDS011;52411;52.716;6.696;2023-04-07T08:58:46;19.17;;;14.18;;
65691;SDS011;52411;52.716;6.696;2023-04-07T09:01:12;20.65;;;14.65;;
65691;SDS011;52411;52.716;6.696;2023-04-07T09:03:40;20.05;;;13.75;;
65691;SDS011;52411;52.716;6.696;2023-04-07T09:06:08;19.67;;;13.07;;
65691;SDS011;52411;52.716;6.696;2023-04-07T09:08:37;19.77;;;14.13;;
65691;SDS011;52411;52.716;6.696;2023-04-07T09:11:03;19.77;;;14.55;;
65691;SDS011;52411;52.716;6.696;2023-04-07T09:13:29;20.08;;;14.77;;
65691;SDS011;52411;52.716;6.696;2023-04-07T09:15:56;22.02;;;15.90;;
65691;SDS011;52411;52.716;6.696;2023-04-07T09:18:21;23.30;;;16.40;;
65691;SDS011;52411;52.716;6.696;2023-04-07T09:20:53;24.83;;;16.55;;
65691;SDS011;52411;52.716;6.696;2023-04-07T09:23:29;25.65;;;17.80;;
65691;SDS011;52411;52.716;6.696;2023-04-07T09:25:56;29.38;;;19.00;;
65691;SDS011;52411;52.716;6.696;2023-04-07T09:28:41;30.27;;;20.38;;
65691;SDS011;52411;52.716;6.696;2023-04-07T09:31:07;28.63;;;19.67;;
65691;SDS011;52411;52.716;6.696;2023-04-07T09:33:33;35.55;;;23.13;;
65691;SDS011;52411;52.716;6.696;2023-04-07T09:36:00;45.97;;;25.20;;
65691;SDS011;52411;52.716;6.696;2023-04-07T09:38:33;74.88;;;31.27;;
65691;SDS011;52411;52.716;6.696;2023-04-07T09:41:08;45.78;;;25.38;;
65691;SDS011;52411;52.716;6.696;2023-04-07T09:43:39;32.97;;;22.23;;
65691;SDS011;52411;52.716;6.696;2023-04-07T09:46:06;33.78;;;22.48;;
65691;SDS011;52411;52.716;6.696;2023-04-07T09:48:36;32.65;;;22.67;;
65691;SDS011;52411;52.716;6.696;2023-04-07T09:51:09;32.42;;;22.13;;
65691;SDS011;52411;52.716;6.696;2023-04-07T09:53:43;35.63;;;23.20;;
65691;SDS011;52411;52.716;6.696;2023-04-07T09:56:14;36.60;;;24.10;;
65691;SDS011;52411;52.716;6.696;2023-04-07T09:58:42;35.75;;;23.63;;
65691;SDS011;52411;52.716;6.696;2023-04-07T10:01:12;33.70;;;22.63;;
65691;SDS011;52411;52.716;6.696;2023-04-07T10:03:40;32.42;;;22.00;;
65691;SDS011;52411;52.716;6.696;2023-04-07T10:06:06;32.88;;;22.17;;
65691;SDS011;52411;52.716;6.696;2023-04-07T10:08:33;34.72;;;23.05;;
65691;SDS011;52411;52.716;6.696;2023-04-07T10:11:00;31.08;;;21.73;;
65691;SDS011;52411;52.716;6.696;2023-04-07T10:13:27;28.67;;;19.77;;
65691;SDS011;52411;52.716;6.696;2023-04-07T10:15:54;29.60;;;21.05;;
65691;SDS011;52411;52.716;6.696;2023-04-07T10:18:20;26.67;;;19.02;;
65691;SDS011;52411;52.716;6.696;2023-04-07T10:20:49;25.83;;;18.52;;
65691;SDS011;52411;52.716;6.696;2023-04-07T10:23:18;23.10;;;17.02;;
65691;SDS011;52411;52.716;6.696;2023-04-07T10:25:48;23.08;;;16.92;;
65691;SDS011;52411;52.716;6.696;2023-04-07T10:28:17;22.85;;;17.08;;
65691;SDS011;52411;52.716;6.696;2023-04-07T10:30:45;22.20;;;16.95;;
65691;SDS011;52411;52.716;6.696;2023-04-07T10:33:12;19.70;;;14.98;;
65691;SDS011;52411;52.716;6.696;2023-04-07T10:38:30;21.08;;;15.80;;
65691;SDS011;52411;52.716;6.696;2023-04-07T10:40:56;20.85;;;15.82;;
65691;SDS011;52411;52.716;6.696;2023-04-07T10:43:38;21.08;;;15.75;;
65691;SDS011;52411;52.716;6.696;2023-04-07T10:46:05;20.65;;;15.80;;
65691;SDS011;52411;52.716;6.696;2023-04-07T10:48:32;22.25;;;16.48;;
65691;SDS011;52411;52.716;6.696;2023-04-07T10:53:29;20.10;;;15.05;;
65691;SDS011;52411;52.716;6.696;2023-04-07T10:55:55;21.17;;;15.48;;
65691;SDS011;52411;52.716;6.696;2023-04-07T11:03:28;18.83;;;14.38;;
65691;SDS011;52411;52.716;6.696;2023-04-07T11:06:05;20.13;;;15.55;;
65691;SDS011;52411;52.716;6.696;2023-04-07T11:08:39;20.02;;;15.13;;
65691;SDS011;52411;52.716;6.696;2023-04-07T11:11:07;19.92;;;14.75;;
65691;SDS011;52411;52.716;6.696;2023-04-07T11:13:49;19.35;;;15.02;;
65691;SDS011;52411;52.716;6.696;2023-04-07T11:16:17;19.27;;;14.52;;
65691;SDS011;52411;52.716;6.696;2023-04-07T11:18:44;19.45;;;13.88;;
65691;SDS011;52411;52.716;6.696;2023-04-07T11:21:16;19.02;;;14.10;;
65691;SDS011;52411;52.716;6.696;2023-04-07T11:23:43;18.58;;;14.10;;
65691;SDS011;52411;52.716;6.696;2023-04-07T11:26:11;17.50;;;11.98;;
65691;SDS011;52411;52.716;6.696;2023-04-07T11:28:53;17.23;;;12.77;;
65691;SDS011;52411;52.716;6.696;2023-04-07T11:31:26;16.35;;;12.18;;
65691;SDS011;52411;52.716;6.696;2023-04-07T11:36:39;15.00;;;11.05;;
65691;SDS011;52411;52.716;6.696;2023-04-07T11:39:05;16.48;;;10.32;;
65691;SDS011;52411;52.716;6.696;2023-04-07T11:41:48;13.82;;;9.82;;
65691;SDS011;52411;52.716;6.696;2023-04-07T11:44:15;15.60;;;10.00;;
65691;SDS011;52411;52.716;6.696;2023-04-07T11:49:19;13.65;;;10.05;;
65691;SDS011;52411;52.716;6.696;2023-04-07T11:51:44;15.60;;;10.40;;
65691;SDS011;52411;52.716;6.696;2023-04-07T11:54:11;14.52;;;10.60;;
65691;SDS011;52411;52.716;6.696;2023-04-07T11:56:40;15.50;;;10.80;;
65691;SDS011;52411;52.716;6.696;2023-04-07T11:59:08;13.77;;;10.52;;
65691;SDS011;52411;52.716;6.696;2023-04-07T12:01:39;14.18;;;10.07;;
65691;SDS011;52411;52.716;6.696;2023-04-07T12:04:05;15.48;;;10.45;;
65691;SDS011;52411;52.716;6.696;2023-04-07T12:06:36;14.90;;;10.30;;
65691;SDS011;52411;52.716;6.696;2023-04-07T12:09:07;15.57;;;10.38;;
65691;SDS011;52411;52.716;6.696;2023-04-07T12:11:33;13.73;;;9.90;;
65691;SDS011;52411;52.716;6.696;2023-04-07T12:14:00;16.05;;;10.68;;
65691;SDS011;52411;52.716;6.696;2023-04-07T12:16:29;14.13;;;10.05;;
65691;SDS011;52411;52.716;6.696;2023-04-07T12:18:54;15.52;;;11.05;;
65691;SDS011;52411;52.716;6.696;2023-04-07T12:21:21;15.27;;;11.15;;
65691;SDS011;52411;52.716;6.696;2023-04-07T12:23:48;13.82;;;9.98;;
65691;SDS011;52411;52.716;6.696;2023-04-07T12:26:13;15.80;;;11.20;;
65691;SDS011;52411;52.716;6.696;2023-04-07T12:28:39;14.93;;;11.43;;
65691;SDS011;52411;52.716;6.696;2023-04-07T12:31:04;15.20;;;10.73;;
65691;SDS011;52411;52.716;6.696;2023-04-07T12:33:30;14.75;;;11.00;;
65691;SDS011;52411;52.716;6.696;2023-04-07T12:35:56;17.23;;;11.15;;
65691;SDS011;52411;52.716;6.696;2023-04-07T12:38:22;17.65;;;10.48;;
65691;SDS011;52411;52.716;6.696;2023-04-07T12:40:48;17.63;;;11.38;;
65691;SDS011;52411;52.716;6.696;2023-04-07T12:43:14;14.18;;;10.63;;
65691;SDS011;52411;52.716;6.696;2023-04-07T12:45:40;14.50;;;10.70;;
65691;SDS011;52411;52.716;6.696;2023-04-07T12:48:05;15.13;;;10.55;;
65691;SDS011;52411;52.716;6.696;2023-04-07T12:50:31;15.65;;;11.10;;
65691;SDS011;52411;52.716;6.696;2023-04-07T12:52:56;16.52;;;11.20;;
65691;SDS011;52411;52.716;6.696;2023-04-07T12:55:29;14.40;;;10.70;;
65691;SDS011;52411;52.716;6.696;2023-04-07T12:57:57;15.30;;;11.63;;
65691;SDS011;52411;52.716;6.696;2023-04-07T13:00:23;15.88;;;10.77;;
65691;SDS011;52411;52.716;6.696;2023-04-07T13:02:49;12.95;;;10.40;;
65691;SDS011;52411;52.716;6.696;2023-04-07T13:05:15;13.75;;;9.98;;
65691;SDS011;52411;52.716;6.696;2023-04-07T13:07:40;13.20;;;9.45;;
65691;SDS011;52411;52.716;6.696;2023-04-07T13:10:06;13.77;;;9.35;;
65691;SDS011;52411;52.716;6.696;2023-04-07T13:12:33;13.00;;;9.48;;
65691;SDS011;52411;52.716;6.696;2023-04-07T13:14:59;13.68;;;9.70;;
65691;SDS011;52411;52.716;6.696;2023-04-07T13:17:25;11.30;;;8.60;;
65691;SDS011;52411;52.716;6.696;2023-04-07T13:19:50;13.80;;;9.70;;
65691;SDS011;52411;52.716;6.696;2023-04-07T13:22:16;13.02;;;10.05;;
65691;SDS011;52411;52.716;6.696;2023-04-07T13:24:42;12.82;;;9.80;;
65691;SDS011;52411;52.716;6.696;2023-04-07T13:27:08;11.15;;;8.52;;
65691;SDS011;52411;52.716;6.696;2023-04-07T13:29:33;11.70;;;8.93;;
65691;SDS011;52411;52.716;6.696;2023-04-07T13:34:31;12.70;;;8.32;;
65691;SDS011;52411;52.716;6.696;2023-04-07T13:36:57;11.90;;;8.77;;
65691;SDS011;52411;52.716;6.696;2023-04-07T13:39:25;11.45;;;9.25;;
65691;SDS011;52411;52.716;6.696;2023-04-07T13:41:51;11.55;;;8.13;;
65691;SDS011;52411;52.716;6.696;2023-04-07T13:44:16;14.48;;;8.38;;
65691;SDS011;52411;52.716;6.696;2023-04-07T13:46:42;11.10;;;7.95;;
65691;SDS011;52411;52.716;6.696;2023-04-07T13:49:07;10.25;;;8.30;;
65691;SDS011;52411;52.716;6.696;2023-04-07T13:51:33;9.60;;;7.70;;
65691;SDS011;52411;52.716;6.696;2023-04-07T13:53:59;11.35;;;7.57;;
65691;SDS011;52411;52.716;6.696;2023-04-07T13:56:24;13.55;;;7.78;;
65691;SDS011;52411;52.716;6.696;2023-04-07T13:58:50;12.25;;;8.20;;
65691;SDS011;52411;52.716;6.696;2023-04-07T14:01:15;10.43;;;7.93;;
65691;SDS011;52411;52.716;6.696;2023-04-07T14:03:42;10.43;;;7.88;;
65691;SDS011;52411;52.716;6.696;2023-04-07T14:06:09;9.88;;;7.85;;
65691;SDS011;52411;52.716;6.696;2023-04-07T14:08:34;10.23;;;8.20;;
65691;SDS011;52411;52.716;6.696;2023-04-07T14:11:01;9.98;;;8.10;;
65691;SDS011;52411;52.716;6.696;2023-04-07T14:13:27;11.02;;;8.38;;
65691;SDS011;52411;52.716;6.696;2023-04-07T14:15:52;10.88;;;8.57;;
65691;SDS011;52411;52.716;6.696;2023-04-07T14:18:18;10.32;;;8.30;;
65691;SDS011;52411;52.716;6.696;2023-04-07T14:20:43;11.05;;;8.38;;
65691;SDS011;52411;52.716;6.696;2023-04-07T14:23:09;11.50;;;8.35;;
65691;SDS011;52411;52.716;6.696;2023-04-07T14:25:35;11.10;;;8.57;;
65691;SDS011;52411;52.716;6.696;2023-04-07T14:28:01;10.43;;;8.60;;
65691;SDS011;52411;52.716;6.696;2023-04-07T14:30:26;10.15;;;7.93;;
65691;SDS011;52411;52.716;6.696;2023-04-07T14:32:52;11.30;;;8.82;;
65691;SDS011;52411;52.716;6.696;2023-04-07T14:35:17;10.75;;;8.60;;
65691;SDS011;52411;52.716;6.696;2023-04-07T14:37:43;10.93;;;8.30;;
65691;SDS011;52411;52.716;6.696;2023-04-07T14:40:09;11.23;;;8.73;;
65691;SDS011;52411;52.716;6.696;2023-04-07T14:42:35;11.10;;;8.73;;
65691;SDS011;52411;52.716;6.696;2023-04-07T14:45:01;10.25;;;8.63;;
65691;SDS011;52411;52.716;6.696;2023-04-07T14:47:28;11.55;;;9.13;;
65691;SDS011;52411;52.716;6.696;2023-04-07T14:49:54;12.90;;;9.32;;